sensor_id;sensor_type;location;lat;lon;timestamp;P1;durP1;ratioP1;P2;durP2;ratioP2
16506;SDS011;8366;51.020;7.642;2023-04-01T00:00:50;1.70;;;0.67;;
16506;SDS011;8366;51.020;7.642;2023-04-01T00:03:17;1.97;;;0.80;;
16506;SDS011;8366;51.020;7.642;2023-04-01T00:05:45;3.87;;;0.80;;
16506;SDS011;8366;51.020;7.642;2023-04-01T00:08:11;2.33;;;0.70;;
16506;SDS011;8366;51.020;7.642;2023-04-01T00:10:38;3.30;;;0.73;;
16506;SDS011;8366;51.020;7.642;2023-04-01T00:13:05;2.43;;;0.63;;
16506;SDS011;8366;51.020;7.642;2023-04-01T00:15:32;2.27;;;0.50;;
16506;SDS011;8366;51.020;7.642;2023-04-01T00:17:58;2.60;;;0.63;;
16506;SDS011;8366;51.020;7.642;2023-04-01T00:20:25;2.57;;;0.70;;
16506;SDS011;8366;51.020;7.642;2023-04-01T00:22:53;1.00;;;0.50;;
16506;SDS011;8366;51.020;7.642;2023-04-01T00:25:20;2.97;;;1.00;;
16506;SDS011;8366;51.020;7.642;2023-04-01T00:27:46;1.90;;;0.57;;
16506;SDS011;8366;51.020;7.642;2023-04-01T00:30:13;3.40;;;0.60;;
16506;SDS011;8366;51.020;7.642;2023-04-01T00:32:40;2.10;;;0.80;;
16506;SDS011;8366;51.020;7.642;2023-04-01T00:35:07;1.70;;;0.50;;
16506;SDS011;8366;51.020;7.642;2023-04-01T00:37:34;1.10;;;0.60;;
16506;SDS011;8366;51.020;7.642;2023-04-01T00:40:03;1.40;;;0.50;;
16506;SDS011;8366;51.020;7.642;2023-04-01T00:42:31;2.00;;;0.50;;
16506;SDS011;8366;51.020;7.642;2023-04-01T00:44:58;1.83;;;0.60;;
16506;SDS011;8366;51.020;7.642;2023-04-01T00:47:24;3.37;;;0.57;;
16506;SDS011;8366;51.020;7.642;2023-04-01T00:49:52;1.53;;;0.53;;
16506;SDS011;8366;51.020;7.642;2023-04-01T00:52:21;2.17;;;0.50;;
16506;SDS011;8366;51.020;7.642;2023-04-01T00:54:49;3.63;;;0.70;;
16506;SDS011;8366;51.020;7.642;2023-04-01T00:57:21;1.73;;;0.50;;
16506;SDS011;8366;51.020;7.642;2023-04-01T00:59:50;2.10;;;0.60;;
16506;SDS011;8366;51.020;7.642;2023-04-01T01:02:18;1.10;;;0.60;;
16506;SDS011;8366;51.020;7.642;2023-04-01T01:04:45;1.70;;;0.50;;
16506;SDS011;8366;51.020;7.642;2023-04-01T01:07:14;1.43;;;0.50;;
16506;SDS011;8366;51.020;7.642;2023-04-01T01:09:49;2.60;;;0.70;;
16506;SDS011;8366;51.020;7.642;2023-04-01T01:12:23;1.67;;;0.50;;
16506;SDS011;8366;51.020;7.642;2023-04-01T01:14:54;1.77;;;0.60;;
16506;SDS011;8366;51.020;7.642;2023-04-01T01:17:26;2.97;;;0.40;;
16506;SDS011;8366;51.020;7.642;2023-04-01T01:25:48;1.03;;;0.67;;
16506;SDS011;8366;51.020;7.642;2023-04-01T01:28:26;2.00;;;1.13;;
16506;SDS011;8366;51.020;7.642;2023-04-01T01:31:02;2.30;;;0.60;;
16506;SDS011;8366;51.020;7.642;2023-04-01T01:33:32;1.77;;;0.47;;
16506;SDS011;8366;51.020;7.642;2023-04-01T01:36:07;1.27;;;0.50;;
16506;SDS011;8366;51.020;7.642;2023-04-01T01:38:35;1.37;;;0.50;;
16506;SDS011;8366;51.020;7.642;2023-04-01T01:41:02;3.63;;;0.63;;
16506;SDS011;8366;51.020;7.642;2023-04-01T01:43:31;2.47;;;0.60;;
16506;SDS011;8366;51.020;7.642;2023-04-01T01:46:00;1.83;;;0.60;;
16506;SDS011;8366;51.020;7.642;2023-04-01T01:48:29;1.93;;;0.63;;
16506;SDS011;8366;51.020;7.642;2023-04-01T01:50:57;1.70;;;0.50;;
16506;SDS011;8366;51.020;7.642;2023-04-01T01:53:26;0.90;;;0.50;;
16506;SDS011;8366;51.020;7.642;2023-04-01T01:55:52;1.80;;;0.50;;
16506;SDS011;8366;51.020;7.642;2023-04-01T01:58:19;0.73;;;0.50;;
16506;SDS011;8366;51.020;7.642;2023-04-01T02:00:50;1.40;;;0.63;;
16506;SDS011;8366;51.020;7.642;2023-04-01T02:03:19;2.17;;;0.50;;
16506;SDS011;8366;51.020;7.642;2023-04-01T02:05:46;1.13;;;0.50;;
16506;SDS011;8366;51.020;7.642;2023-04-01T02:08:14;1.83;;;0.60;;
16506;SDS011;8366;51.020;7.642;2023-04-01T02:10:45;2.20;;;0.60;;
16506;SDS011;8366;51.020;7.642;2023-04-01T02:13:15;0.80;;;0.50;;
16506;SDS011;8366;51.020;7.642;2023-04-01T02:15:45;1.20;;;0.40;;
16506;SDS011;8366;51.020;7.642;2023-04-01T02:18:13;0.73;;;0.40;;
16506;SDS011;8366;51.020;7.642;2023-04-01T02:20:40;2.63;;;0.50;;
16506;SDS011;8366;51.020;7.642;2023-04-01T02:23:07;3.53;;;0.70;;
16506;SDS011;8366;51.020;7.642;2023-04-01T02:25:35;0.67;;;0.40;;
16506;SDS011;8366;51.020;7.642;2023-04-01T02:28:04;2.53;;;0.60;;
16506;SDS011;8366;51.020;7.642;2023-04-01T02:30:33;1.70;;;0.40;;
16506;SDS011;8366;51.020;7.642;2023-04-01T02:33:01;0.60;;;0.47;;
16506;SDS011;8366;51.020;7.642;2023-04-01T02:35:27;0.80;;;0.50;;
16506;SDS011;8366;51.020;7.642;2023-04-01T02:37:54;0.87;;;0.40;;
16506;SDS011;8366;51.020;7.642;2023-04-01T02:40:21;1.77;;;0.60;;
16506;SDS011;8366;51.020;7.642;2023-04-01T02:42:48;1.33;;;0.50;;
16506;SDS011;8366;51.020;7.642;2023-04-01T02:45:16;2.23;;;0.50;;
16506;SDS011;8366;51.020;7.642;2023-04-01T02:47:43;2.07;;;0.63;;
16506;SDS011;8366;51.020;7.642;2023-04-01T02:50:09;1.40;;;0.50;;
16506;SDS011;8366;51.020;7.642;2023-04-01T02:52:36;1.83;;;0.40;;
16506;SDS011;8366;51.020;7.642;2023-04-01T02:55:04;1.33;;;0.50;;
16506;SDS011;8366;51.020;7.642;2023-04-01T02:57:31;2.53;;;0.50;;
16506;SDS011;8366;51.020;7.642;2023-04-01T02:59:58;1.63;;;0.50;;
16506;SDS011;8366;51.020;7.642;2023-04-01T03:02:25;0.67;;;0.33;;
16506;SDS011;8366;51.020;7.642;2023-04-01T03:04:52;1.30;;;0.40;;
16506;SDS011;8366;51.020;7.642;2023-04-01T03:07:18;0.30;;;0.30;;
16506;SDS011;8366;51.020;7.642;2023-04-01T03:09:45;1.20;;;0.40;;
16506;SDS011;8366;51.020;7.642;2023-04-01T03:12:11;1.50;;;0.30;;
16506;SDS011;8366;51.020;7.642;2023-04-01T03:14:38;1.33;;;0.40;;
16506;SDS011;8366;51.020;7.642;2023-04-01T03:17:04;1.60;;;0.40;;
16506;SDS011;8366;51.020;7.642;2023-04-01T03:19:32;0.90;;;0.40;;
16506;SDS011;8366;51.020;7.642;2023-04-01T03:21:59;0.80;;;0.40;;
16506;SDS011;8366;51.020;7.642;2023-04-01T03:24:25;1.97;;;0.57;;
16506;SDS011;8366;51.020;7.642;2023-04-01T03:26:52;2.10;;;0.70;;
16506;SDS011;8366;51.020;7.642;2023-04-01T03:29:18;1.33;;;0.40;;
16506;SDS011;8366;51.020;7.642;2023-04-01T03:31:45;0.83;;;0.50;;
16506;SDS011;8366;51.020;7.642;2023-04-01T03:34:11;0.80;;;0.30;;
16506;SDS011;8366;51.020;7.642;2023-04-01T03:36:39;0.60;;;0.30;;
16506;SDS011;8366;51.020;7.642;2023-04-01T03:39:05;2.10;;;0.60;;
16506;SDS011;8366;51.020;7.642;2023-04-01T03:41:32;1.77;;;0.50;;
16506;SDS011;8366;51.020;7.642;2023-04-01T03:43:58;1.87;;;0.57;;
16506;SDS011;8366;51.020;7.642;2023-04-01T03:46:24;1.10;;;0.50;;
16506;SDS011;8366;51.020;7.642;2023-04-01T03:48:51;1.40;;;0.40;;
16506;SDS011;8366;51.020;7.642;2023-04-01T03:51:17;1.33;;;0.50;;
16506;SDS011;8366;51.020;7.642;2023-04-01T03:53:45;0.77;;;0.40;;
16506;SDS011;8366;51.020;7.642;2023-04-01T03:56:12;2.73;;;0.50;;
16506;SDS011;8366;51.020;7.642;2023-04-01T03:58:38;0.47;;;0.40;;
16506;SDS011;8366;51.020;7.642;2023-04-01T04:01:12;1.27;;;0.40;;
16506;SDS011;8366;51.020;7.642;2023-04-01T04:03:42;1.13;;;0.47;;
16506;SDS011;8366;51.020;7.642;2023-04-01T04:06:11;0.93;;;0.40;;
16506;SDS011;8366;51.020;7.642;2023-04-01T04:08:38;0.80;;;0.40;;
16506;SDS011;8366;51.020;7.642;2023-04-01T04:11:06;1.17;;;0.40;;
16506;SDS011;8366;51.020;7.642;2023-04-01T04:13:32;1.50;;;0.40;;
16506;SDS011;8366;51.020;7.642;2023-04-01T04:15:59;0.37;;;0.37;;
16506;SDS011;8366;51.020;7.642;2023-04-01T04:18:25;4.93;;;0.60;;
16506;SDS011;8366;51.020;7.642;2023-04-01T04:20:51;0.90;;;0.40;;
16506;SDS011;8366;51.020;7.642;2023-04-01T04:23:18;1.80;;;0.50;;
16506;SDS011;8366;51.020;7.642;2023-04-01T04:25:52;0.93;;;0.40;;
16506;SDS011;8366;51.020;7.642;2023-04-01T04:28:21;0.97;;;0.30;;
16506;SDS011;8366;51.020;7.642;2023-04-01T04:30:47;0.70;;;0.40;;
16506;SDS011;8366;51.020;7.642;2023-04-01T04:33:14;2.57;;;0.70;;
16506;SDS011;8366;51.020;7.642;2023-04-01T04:35:40;1.03;;;0.50;;
16506;SDS011;8366;51.020;7.642;2023-04-01T04:38:07;0.50;;;0.40;;
16506;SDS011;8366;51.020;7.642;2023-04-01T04:40:33;2.03;;;0.43;;
16506;SDS011;8366;51.020;7.642;2023-04-01T04:43:01;1.30;;;0.40;;
16506;SDS011;8366;51.020;7.642;2023-04-01T04:45:29;0.93;;;0.50;;
16506;SDS011;8366;51.020;7.642;2023-04-01T04:47:56;0.93;;;0.40;;
16506;SDS011;8366;51.020;7.642;2023-04-01T04:50:22;1.20;;;0.40;;
16506;SDS011;8366;51.020;7.642;2023-04-01T04:52:49;0.87;;;0.40;;
16506;SDS011;8366;51.020;7.642;2023-04-01T04:55:16;0.60;;;0.40;;
16506;SDS011;8366;51.020;7.642;2023-04-01T04:57:43;1.27;;;0.40;;
16506;SDS011;8366;51.020;7.642;2023-04-01T05:00:09;0.30;;;0.30;;
16506;SDS011;8366;51.020;7.642;2023-04-01T05:02:38;1.47;;;0.40;;
16506;SDS011;8366;51.020;7.642;2023-04-01T05:05:05;0.60;;;0.30;;
16506;SDS011;8366;51.020;7.642;2023-04-01T05:07:32;1.77;;;0.50;;
16506;SDS011;8366;51.020;7.642;2023-04-01T05:09:59;0.77;;;0.43;;
16506;SDS011;8366;51.020;7.642;2023-04-01T05:12:26;3.17;;;0.30;;
16506;SDS011;8366;51.020;7.642;2023-04-01T05:14:52;1.13;;;0.30;;
16506;SDS011;8366;51.020;7.642;2023-04-01T05:17:18;1.17;;;0.30;;
16506;SDS011;8366;51.020;7.642;2023-04-01T05:19:46;1.20;;;0.50;;
16506;SDS011;8366;51.020;7.642;2023-04-01T05:22:13;1.13;;;0.40;;
16506;SDS011;8366;51.020;7.642;2023-04-01T05:24:39;0.80;;;0.40;;
16506;SDS011;8366;51.020;7.642;2023-04-01T05:27:05;1.03;;;0.30;;
16506;SDS011;8366;51.020;7.642;2023-04-01T05:29:32;1.30;;;0.50;;
16506;SDS011;8366;51.020;7.642;2023-04-01T05:31:58;1.03;;;0.40;;
16506;SDS011;8366;51.020;7.642;2023-04-01T05:34:25;0.30;;;0.20;;
16506;SDS011;8366;51.020;7.642;2023-04-01T05:36:52;0.73;;;0.40;;
16506;SDS011;8366;51.020;7.642;2023-04-01T05:39:19;0.57;;;0.40;;
16506;SDS011;8366;51.020;7.642;2023-04-01T05:41:45;0.20;;;0.20;;
16506;SDS011;8366;51.020;7.642;2023-04-01T05:44:12;0.90;;;0.40;;
16506;SDS011;8366;51.020;7.642;2023-04-01T05:46:39;0.77;;;0.40;;
16506;SDS011;8366;51.020;7.642;2023-04-01T05:49:05;0.73;;;0.40;;
16506;SDS011;8366;51.020;7.642;2023-04-01T05:51:31;0.87;;;0.30;;
16506;SDS011;8366;51.020;7.642;2023-04-01T05:53:59;0.73;;;0.50;;
16506;SDS011;8366;51.020;7.642;2023-04-01T05:56:26;1.67;;;0.60;;
16506;SDS011;8366;51.020;7.642;2023-04-01T05:58:53;0.83;;;0.37;;
16506;SDS011;8366;51.020;7.642;2023-04-01T06:01:20;2.30;;;0.40;;
16506;SDS011;8366;51.020;7.642;2023-04-01T06:03:46;0.67;;;0.30;;
16506;SDS011;8366;51.020;7.642;2023-04-01T06:06:13;0.43;;;0.37;;
16506;SDS011;8366;51.020;7.642;2023-04-01T06:08:41;0.30;;;0.30;;
16506;SDS011;8366;51.020;7.642;2023-04-01T06:11:13;0.73;;;0.70;;
16506;SDS011;8366;51.020;7.642;2023-04-01T06:13:49;1.00;;;0.47;;
16506;SDS011;8366;51.020;7.642;2023-04-01T06:16:26;1.07;;;0.40;;
16506;SDS011;8366;51.020;7.642;2023-04-01T06:19:06;0.90;;;0.60;;
16506;SDS011;8366;51.020;7.642;2023-04-01T06:21:46;0.67;;;0.50;;
16506;SDS011;8366;51.020;7.642;2023-04-01T06:24:41;0.73;;;0.50;;
16506;SDS011;8366;51.020;7.642;2023-04-01T06:27:18;1.57;;;0.47;;
16506;SDS011;8366;51.020;7.642;2023-04-01T06:29:50;1.37;;;0.50;;
16506;SDS011;8366;51.020;7.642;2023-04-01T06:35:17;0.50;;;0.50;;
16506;SDS011;8366;51.020;7.642;2023-04-01T06:37:57;0.87;;;0.50;;
16506;SDS011;8366;51.020;7.642;2023-04-01T06:40:35;0.43;;;0.37;;
16506;SDS011;8366;51.020;7.642;2023-04-01T06:43:11;1.93;;;0.50;;
16506;SDS011;8366;51.020;7.642;2023-04-01T06:45:44;1.20;;;0.60;;
16506;SDS011;8366;51.020;7.642;2023-04-01T06:51:12;0.57;;;0.47;;
16506;SDS011;8366;51.020;7.642;2023-04-01T06:53:48;1.73;;;0.70;;
16506;SDS011;8366;51.020;7.642;2023-04-01T06:56:17;1.10;;;0.90;;
16506;SDS011;8366;51.020;7.642;2023-04-01T06:58:48;0.70;;;0.40;;
16506;SDS011;8366;51.020;7.642;2023-04-01T07:01:18;1.53;;;1.00;;
16506;SDS011;8366;51.020;7.642;2023-04-01T07:03:49;1.60;;;0.70;;
16506;SDS011;8366;51.020;7.642;2023-04-01T07:06:20;2.23;;;1.13;;
16506;SDS011;8366;51.020;7.642;2023-04-01T07:08:51;1.37;;;1.00;;
16506;SDS011;8366;51.020;7.642;2023-04-01T07:11:22;0.80;;;0.57;;
16506;SDS011;8366;51.020;7.642;2023-04-01T07:13:54;1.30;;;0.47;;
16506;SDS011;8366;51.020;7.642;2023-04-01T07:16:24;1.90;;;1.13;;
16506;SDS011;8366;51.020;7.642;2023-04-01T07:18:54;2.30;;;0.60;;
16506;SDS011;8366;51.020;7.642;2023-04-01T07:21:25;0.60;;;0.40;;
16506;SDS011;8366;51.020;7.642;2023-04-01T07:23:54;0.60;;;0.60;;
16506;SDS011;8366;51.020;7.642;2023-04-01T07:26:23;1.40;;;0.53;;
16506;SDS011;8366;51.020;7.642;2023-04-01T07:28:53;0.90;;;0.50;;
16506;SDS011;8366;51.020;7.642;2023-04-01T07:31:23;0.50;;;0.50;;
16506;SDS011;8366;51.020;7.642;2023-04-01T07:33:58;1.47;;;1.30;;
16506;SDS011;8366;51.020;7.642;2023-04-01T07:36:31;1.20;;;1.07;;
16506;SDS011;8366;51.020;7.642;2023-04-01T07:39:04;1.10;;;1.00;;
16506;SDS011;8366;51.020;7.642;2023-04-01T07:41:37;1.20;;;1.07;;
16506;SDS011;8366;51.020;7.642;2023-04-01T07:44:12;1.07;;;0.90;;
16506;SDS011;8366;51.020;7.642;2023-04-01T07:46:53;1.07;;;0.97;;
16506;SDS011;8366;51.020;7.642;2023-04-01T07:49:27;1.40;;;0.90;;
16506;SDS011;8366;51.020;7.642;2023-04-01T07:51:58;1.27;;;1.00;;
16506;SDS011;8366;51.020;7.642;2023-04-01T07:54:28;1.40;;;0.77;;
16506;SDS011;8366;51.020;7.642;2023-04-01T07:57:00;1.30;;;0.93;;
16506;SDS011;8366;51.020;7.642;2023-04-01T07:59:33;1.27;;;0.90;;
16506;SDS011;8366;51.020;7.642;2023-04-01T08:02:06;0.80;;;0.80;;
16506;SDS011;8366;51.020;7.642;2023-04-01T08:04:40;0.70;;;0.70;;
16506;SDS011;8366;51.020;7.642;2023-04-01T08:07:20;1.07;;;0.90;;
16506;SDS011;8366;51.020;7.642;2023-04-01T08:09:51;0.77;;;0.77;;
16506;SDS011;8366;51.020;7.642;2023-04-01T08:12:25;1.10;;;0.87;;
16506;SDS011;8366;51.020;7.642;2023-04-01T08:15:02;1.00;;;0.90;;
16506;SDS011;8366;51.020;7.642;2023-04-01T08:17:36;0.97;;;0.60;;
16506;SDS011;8366;51.020;7.642;2023-04-01T08:20:13;0.80;;;0.80;;
16506;SDS011;8366;51.020;7.642;2023-04-01T08:22:45;0.83;;;0.70;;
16506;SDS011;8366;51.020;7.642;2023-04-01T08:25:16;1.20;;;0.60;;
16506;SDS011;8366;51.020;7.642;2023-04-01T08:27:46;1.13;;;0.90;;
16506;SDS011;8366;51.020;7.642;2023-04-01T08:30:18;1.03;;;0.67;;
16506;SDS011;8366;51.020;7.642;2023-04-01T08:32:47;0.50;;;0.50;;
16506;SDS011;8366;51.020;7.642;2023-04-01T08:35:17;0.93;;;0.60;;
16506;SDS011;8366;51.020;7.642;2023-04-01T08:37:46;1.03;;;0.60;;
16506;SDS011;8366;51.020;7.642;2023-04-01T08:40:39;1.43;;;0.90;;
16506;SDS011;8366;51.020;7.642;2023-04-01T08:43:35;1.00;;;0.60;;
16506;SDS011;8366;51.020;7.642;2023-04-01T08:46:40;1.63;;;0.80;;
16506;SDS011;8366;51.020;7.642;2023-04-01T08:49:45;1.80;;;0.70;;
16506;SDS011;8366;51.020;7.642;2023-04-01T08:52:20;1.13;;;0.60;;
16506;SDS011;8366;51.020;7.642;2023-04-01T08:54:56;0.50;;;0.50;;
16506;SDS011;8366;51.020;7.642;2023-04-01T08:57:45;0.80;;;0.73;;
16506;SDS011;8366;51.020;7.642;2023-04-01T09:00:22;0.67;;;0.67;;
16506;SDS011;8366;51.020;7.642;2023-04-01T09:06:10;1.13;;;0.90;;
16506;SDS011;8366;51.020;7.642;2023-04-01T09:08:46;0.70;;;0.70;;
16506;SDS011;8366;51.020;7.642;2023-04-01T09:11:22;0.77;;;0.60;;
16506;SDS011;8366;51.020;7.642;2023-04-01T09:17:21;0.67;;;0.60;;
16506;SDS011;8366;51.020;7.642;2023-04-01T09:20:02;0.60;;;0.60;;
16506;SDS011;8366;51.020;7.642;2023-04-01T09:22:49;0.80;;;0.70;;
16506;SDS011;8366;51.020;7.642;2023-04-01T09:25:24;0.97;;;0.80;;
16506;SDS011;8366;51.020;7.642;2023-04-01T09:27:57;0.80;;;0.60;;
16506;SDS011;8366;51.020;7.642;2023-04-01T09:30:34;0.83;;;0.80;;
16506;SDS011;8366;51.020;7.642;2023-04-01T09:36:18;1.30;;;0.90;;
16506;SDS011;8366;51.020;7.642;2023-04-01T09:38:56;1.13;;;1.00;;
16506;SDS011;8366;51.020;7.642;2023-04-01T09:41:27;0.70;;;0.70;;
16506;SDS011;8366;51.020;7.642;2023-04-01T09:43:58;0.67;;;0.67;;
16506;SDS011;8366;51.020;7.642;2023-04-01T09:46:32;0.67;;;0.60;;
16506;SDS011;8366;51.020;7.642;2023-04-01T09:52:08;1.67;;;1.40;;
16506;SDS011;8366;51.020;7.642;2023-04-01T09:54:45;1.13;;;1.00;;
16506;SDS011;8366;51.020;7.642;2023-04-01T09:57:44;1.43;;;0.90;;
16506;SDS011;8366;51.020;7.642;2023-04-01T10:00:20;1.37;;;0.90;;
16506;SDS011;8366;51.020;7.642;2023-04-01T10:03:38;0.60;;;0.60;;
16506;SDS011;8366;51.020;7.642;2023-04-01T10:27:29;0.77;;;0.70;;
16506;SDS011;8366;51.020;7.642;2023-04-01T10:33:38;0.80;;;0.70;;
16506;SDS011;8366;51.020;7.642;2023-04-01T10:51:52;1.80;;;0.87;;
16506;SDS011;8366;51.020;7.642;2023-04-01T10:54:43;1.07;;;0.80;;
16506;SDS011;8366;51.020;7.642;2023-04-01T10:57:17;0.90;;;0.90;;
16506;SDS011;8366;51.020;7.642;2023-04-01T11:00:05;0.80;;;0.80;;
16506;SDS011;8366;51.020;7.642;2023-04-01T11:05:36;1.67;;;1.00;;
16506;SDS011;8366;51.020;7.642;2023-04-01T11:14:18;1.23;;;1.13;;
16506;SDS011;8366;51.020;7.642;2023-04-01T11:17:00;1.50;;;1.40;;
16506;SDS011;8366;51.020;7.642;2023-04-01T11:19:46;1.87;;;1.27;;
16506;SDS011;8366;51.020;7.642;2023-04-01T11:22:33;1.50;;;1.40;;
16506;SDS011;8366;51.020;7.642;2023-04-01T11:25:09;2.37;;;1.50;;
16506;SDS011;8366;51.020;7.642;2023-04-01T11:27:50;1.60;;;1.50;;
16506;SDS011;8366;51.020;7.642;2023-04-01T11:30:29;1.50;;;1.40;;
16506;SDS011;8366;51.020;7.642;2023-04-01T11:33:05;1.70;;;1.60;;
16506;SDS011;8366;51.020;7.642;2023-04-01T11:35:42;1.70;;;1.50;;
16506;SDS011;8366;51.020;7.642;2023-04-01T11:38:34;1.87;;;1.70;;
16506;SDS011;8366;51.020;7.642;2023-04-01T11:41:19;1.80;;;1.60;;
16506;SDS011;8366;51.020;7.642;2023-04-01T11:43:54;1.93;;;1.73;;
16506;SDS011;8366;51.020;7.642;2023-04-01T11:46:31;2.50;;;1.50;;
16506;SDS011;8366;51.020;7.642;2023-04-01T11:49:02;1.93;;;1.73;;
16506;SDS011;8366;51.020;7.642;2023-04-01T11:51:38;1.87;;;1.53;;
16506;SDS011;8366;51.020;7.642;2023-04-01T11:57:13;2.10;;;1.80;;
16506;SDS011;8366;51.020;7.642;2023-04-01T11:59:59;1.80;;;1.60;;
16506;SDS011;8366;51.020;7.642;2023-04-01T12:02:32;1.73;;;1.63;;
16506;SDS011;8366;51.020;7.642;2023-04-01T12:05:15;2.20;;;2.00;;
16506;SDS011;8366;51.020;7.642;2023-04-01T12:08:03;2.00;;;1.40;;
16506;SDS011;8366;51.020;7.642;2023-04-01T12:10:39;1.80;;;1.70;;
16506;SDS011;8366;51.020;7.642;2023-04-01T12:13:14;2.20;;;1.57;;
16506;SDS011;8366;51.020;7.642;2023-04-01T12:15:55;3.10;;;1.80;;
16506;SDS011;8366;51.020;7.642;2023-04-01T12:18:28;2.13;;;1.40;;
16506;SDS011;8366;51.020;7.642;2023-04-01T12:21:02;1.77;;;1.60;;
16506;SDS011;8366;51.020;7.642;2023-04-01T12:23:42;1.90;;;1.80;;
16506;SDS011;8366;51.020;7.642;2023-04-01T12:26:26;1.70;;;1.60;;
16506;SDS011;8366;51.020;7.642;2023-04-01T12:29:06;2.00;;;1.80;;
16506;SDS011;8366;51.020;7.642;2023-04-01T12:31:42;2.13;;;1.87;;
16506;SDS011;8366;51.020;7.642;2023-04-01T12:34:28;2.40;;;2.17;;
16506;SDS011;8366;51.020;7.642;2023-04-01T12:37:12;1.90;;;1.80;;
16506;SDS011;8366;51.020;7.642;2023-04-01T12:39:46;1.93;;;1.37;;
16506;SDS011;8366;51.020;7.642;2023-04-01T12:42:21;1.73;;;1.63;;
16506;SDS011;8366;51.020;7.642;2023-04-01T12:45:02;5.27;;;2.97;;
16506;SDS011;8366;51.020;7.642;2023-04-01T12:47:42;2.30;;;2.10;;
16506;SDS011;8366;51.020;7.642;2023-04-01T12:53:32;2.37;;;2.17;;
16506;SDS011;8366;51.020;7.642;2023-04-01T12:56:07;2.40;;;1.90;;
16506;SDS011;8366;51.020;7.642;2023-04-01T12:58:40;2.50;;;2.30;;
16506;SDS011;8366;51.020;7.642;2023-04-01T13:07:33;2.53;;;2.30;;
16506;SDS011;8366;51.020;7.642;2023-04-01T13:10:18;3.47;;;2.47;;
16506;SDS011;8366;51.020;7.642;2023-04-01T13:13:16;2.33;;;2.13;;
16506;SDS011;8366;51.020;7.642;2023-04-01T13:15:55;4.10;;;2.57;;
16506;SDS011;8366;51.020;7.642;2023-04-01T13:18:27;2.53;;;2.23;;
16506;SDS011;8366;51.020;7.642;2023-04-01T13:20:59;2.37;;;2.10;;
16506;SDS011;8366;51.020;7.642;2023-04-01T13:23:37;2.53;;;1.90;;
16506;SDS011;8366;51.020;7.642;2023-04-01T13:26:13;2.60;;;2.40;;
16506;SDS011;8366;51.020;7.642;2023-04-01T13:28:45;2.93;;;2.10;;
16506;SDS011;8366;51.020;7.642;2023-04-01T13:31:19;2.53;;;2.30;;
16506;SDS011;8366;51.020;7.642;2023-04-01T13:33:56;2.60;;;2.23;;
16506;SDS011;8366;51.020;7.642;2023-04-01T13:36:27;2.30;;;2.10;;
16506;SDS011;8366;51.020;7.642;2023-04-01T13:39:06;2.67;;;2.20;;
16506;SDS011;8366;51.020;7.642;2023-04-01T13:41:51;3.33;;;2.57;;
16506;SDS011;8366;51.020;7.642;2023-04-01T13:44:27;3.03;;;2.73;;
16506;SDS011;8366;51.020;7.642;2023-04-01T13:47:05;3.40;;;2.80;;
16506;SDS011;8366;51.020;7.642;2023-04-01T13:53:00;2.77;;;2.57;;
16506;SDS011;8366;51.020;7.642;2023-04-01T13:55:48;2.80;;;2.50;;
16506;SDS011;8366;51.020;7.642;2023-04-01T13:58:20;2.87;;;2.57;;
16506;SDS011;8366;51.020;7.642;2023-04-01T14:00:54;3.20;;;2.90;;
16506;SDS011;8366;51.020;7.642;2023-04-01T14:03:39;3.33;;;2.80;;
16506;SDS011;8366;51.020;7.642;2023-04-01T14:06:13;3.70;;;3.37;;
16506;SDS011;8366;51.020;7.642;2023-04-01T14:09:04;3.20;;;2.90;;
16506;SDS011;8366;51.020;7.642;2023-04-01T14:11:39;6.33;;;3.10;;
16506;SDS011;8366;51.020;7.642;2023-04-01T14:14:14;3.53;;;3.20;;
16506;SDS011;8366;51.020;7.642;2023-04-01T14:16:58;3.67;;;3.30;;
16506;SDS011;8366;51.020;7.642;2023-04-01T14:19:39;5.07;;;3.60;;
16506;SDS011;8366;51.020;7.642;2023-04-01T14:22:13;3.40;;;2.97;;
16506;SDS011;8366;51.020;7.642;2023-04-01T14:24:58;2.80;;;2.50;;
16506;SDS011;8366;51.020;7.642;2023-04-01T14:27:39;2.47;;;2.27;;
16506;SDS011;8366;51.020;7.642;2023-04-01T14:30:24;3.30;;;2.30;;
16506;SDS011;8366;51.020;7.642;2023-04-01T14:32:57;2.33;;;2.13;;
16506;SDS011;8366;51.020;7.642;2023-04-01T14:35:34;2.33;;;2.13;;
16506;SDS011;8366;51.020;7.642;2023-04-01T14:38:10;2.17;;;1.97;;
16506;SDS011;8366;51.020;7.642;2023-04-01T14:40:52;2.77;;;2.57;;
16506;SDS011;8366;51.020;7.642;2023-04-01T14:46:14;2.13;;;1.93;;
16506;SDS011;8366;51.020;7.642;2023-04-01T14:48:50;2.77;;;2.10;;
16506;SDS011;8366;51.020;7.642;2023-04-01T14:51:20;3.27;;;2.93;;
16506;SDS011;8366;51.020;7.642;2023-04-01T14:53:55;2.70;;;2.20;;
16506;SDS011;8366;51.020;7.642;2023-04-01T14:56:36;2.37;;;2.17;;
16506;SDS011;8366;51.020;7.642;2023-04-01T14:59:08;2.43;;;2.20;;
16506;SDS011;8366;51.020;7.642;2023-04-01T15:01:37;1.87;;;1.67;;
16506;SDS011;8366;51.020;7.642;2023-04-01T15:04:14;3.00;;;2.10;;
16506;SDS011;8366;51.020;7.642;2023-04-01T15:06:54;2.07;;;1.80;;
16506;SDS011;8366;51.020;7.642;2023-04-01T15:09:27;2.00;;;1.70;;
16506;SDS011;8366;51.020;7.642;2023-04-01T15:12:02;1.87;;;1.73;;
16506;SDS011;8366;51.020;7.642;2023-04-01T15:14:38;3.03;;;2.10;;
16506;SDS011;8366;51.020;7.642;2023-04-01T15:17:31;1.87;;;1.77;;
16506;SDS011;8366;51.020;7.642;2023-04-01T15:22:59;2.40;;;2.20;;
16506;SDS011;8366;51.020;7.642;2023-04-01T15:25:35;2.43;;;1.90;;
16506;SDS011;8366;51.020;7.642;2023-04-01T15:28:11;2.13;;;1.93;;
16506;SDS011;8366;51.020;7.642;2023-04-01T15:30:45;1.77;;;1.50;;
16506;SDS011;8366;51.020;7.642;2023-04-01T15:33:21;2.10;;;1.90;;
16506;SDS011;8366;51.020;7.642;2023-04-01T15:36:06;2.13;;;1.97;;
16506;SDS011;8366;51.020;7.642;2023-04-01T15:38:41;1.97;;;1.77;;
16506;SDS011;8366;51.020;7.642;2023-04-01T15:41:14;2.37;;;2.17;;
16506;SDS011;8366;51.020;7.642;2023-04-01T15:43:42;3.13;;;2.33;;
16506;SDS011;8366;51.020;7.642;2023-04-01T15:49:10;2.40;;;2.20;;
16506;SDS011;8366;51.020;7.642;2023-04-01T15:51:44;2.27;;;2.07;;
16506;SDS011;8366;51.020;7.642;2023-04-01T15:54:27;2.30;;;2.10;;
16506;SDS011;8366;51.020;7.642;2023-04-01T15:57:15;4.60;;;4.17;;
16506;SDS011;8366;51.020;7.642;2023-04-01T16:00:02;2.80;;;2.17;;
16506;SDS011;8366;51.020;7.642;2023-04-01T16:02:37;2.60;;;2.20;;
16506;SDS011;8366;51.020;7.642;2023-04-01T16:05:10;2.00;;;1.80;;
16506;SDS011;8366;51.020;7.642;2023-04-01T16:07:55;1.93;;;1.80;;
16506;SDS011;8366;51.020;7.642;2023-04-01T16:10:41;2.33;;;2.13;;
16506;SDS011;8366;51.020;7.642;2023-04-01T16:13:18;4.57;;;3.37;;
16506;SDS011;8366;51.020;7.642;2023-04-01T16:15:52;2.60;;;2.40;;
16506;SDS011;8366;51.020;7.642;2023-04-01T16:18:31;3.07;;;2.30;;
16506;SDS011;8366;51.020;7.642;2023-04-01T16:21:14;4.17;;;2.60;;
16506;SDS011;8366;51.020;7.642;2023-04-01T16:23:51;2.50;;;2.30;;
16506;SDS011;8366;51.020;7.642;2023-04-01T16:26:24;2.90;;;2.60;;
16506;SDS011;8366;51.020;7.642;2023-04-01T16:28:54;2.30;;;2.10;;
16506;SDS011;8366;51.020;7.642;2023-04-01T16:31:29;3.13;;;2.40;;
16506;SDS011;8366;51.020;7.642;2023-04-01T16:33:58;2.63;;;2.43;;
16506;SDS011;8366;51.020;7.642;2023-04-01T16:36:28;2.87;;;2.57;;
16506;SDS011;8366;51.020;7.642;2023-04-01T16:39:06;3.07;;;2.50;;
16506;SDS011;8366;51.020;7.642;2023-04-01T16:41:41;3.20;;;2.90;;
16506;SDS011;8366;51.020;7.642;2023-04-01T16:44:13;3.73;;;3.13;;
16506;SDS011;8366;51.020;7.642;2023-04-01T16:46:44;4.57;;;3.50;;
16506;SDS011;8366;51.020;7.642;2023-04-01T16:49:29;3.43;;;3.13;;
16506;SDS011;8366;51.020;7.642;2023-04-01T16:54:42;3.90;;;3.50;;
16506;SDS011;8366;51.020;7.642;2023-04-01T16:57:14;6.40;;;3.00;;
16506;SDS011;8366;51.020;7.642;2023-04-01T16:59:47;5.77;;;3.80;;
16506;SDS011;8366;51.020;7.642;2023-04-01T17:02:24;3.97;;;3.13;;
16506;SDS011;8366;51.020;7.642;2023-04-01T17:04:54;2.70;;;2.43;;
16506;SDS011;8366;51.020;7.642;2023-04-01T17:07:27;5.73;;;3.40;;
16506;SDS011;8366;51.020;7.642;2023-04-01T17:10:10;3.63;;;3.00;;
16506;SDS011;8366;51.020;7.642;2023-04-01T17:12:55;3.50;;;3.20;;
16506;SDS011;8366;51.020;7.642;2023-04-01T17:15:33;4.20;;;3.20;;
16506;SDS011;8366;51.020;7.642;2023-04-01T17:18:08;3.07;;;2.77;;